sensor_id;sensor_type;location;lat;lon;timestamp;P1;durP1;ratioP1;P2;durP2;ratioP2
9445;SDS011;4761;49.490;10.908;2022-09-21T00:02:25;2.27;;;1.40;;
9445;SDS011;4761;49.490;10.908;2022-09-21T00:04:52;2.30;;;1.40;;
9445;SDS011;4761;49.490;10.908;2022-09-21T00:07:17;1.77;;;1.10;;
9445;SDS011;4761;49.490;10.908;2022-09-21T00:09:43;1.97;;;1.23;;
9445;SDS011;4761;49.490;10.908;2022-09-21T00:12:08;2.87;;;1.30;;
9445;SDS011;4761;49.490;10.908;2022-09-21T00:14:34;2.40;;;1.40;;
9445;SDS011;4761;49.490;10.908;2022-09-21T00:16:59;1.80;;;1.50;;
9445;SDS011;4761;49.490;10.908;2022-09-21T00:19:25;1.60;;;1.23;;
9445;SDS011;4761;49.490;10.908;2022-09-21T00:21:54;1.93;;;1.17;;
9445;SDS011;4761;49.490;10.908;2022-09-21T00:24:20;2.63;;;1.60;;
9445;SDS011;4761;49.490;10.908;2022-09-21T00:26:46;1.90;;;1.70;;
9445;SDS011;4761;49.490;10.908;2022-09-21T00:29:11;2.20;;;1.90;;
9445;SDS011;4761;49.490;10.908;2022-09-21T00:31:37;2.53;;;1.70;;
9445;SDS011;4761;49.490;10.908;2022-09-21T00:34:03;2.80;;;2.20;;
9445;SDS011;4761;49.490;10.908;2022-09-21T00:36:31;2.40;;;2.10;;
9445;SDS011;4761;49.490;10.908;2022-09-21T00:38:57;2.20;;;1.93;;
9445;SDS011;4761;49.490;10.908;2022-09-21T00:41:26;2.27;;;1.90;;
9445;SDS011;4761;49.490;10.908;2022-09-21T00:46:46;3.77;;;2.13;;
9445;SDS011;4761;49.490;10.908;2022-09-21T00:49:13;1.80;;;1.43;;
9445;SDS011;4761;49.490;10.908;2022-09-21T00:51:39;2.40;;;1.77;;
9445;SDS011;4761;49.490;10.908;2022-09-21T00:54:07;3.93;;;1.87;;
9445;SDS011;4761;49.490;10.908;2022-09-21T00:56:38;2.13;;;1.70;;
9445;SDS011;4761;49.490;10.908;2022-09-21T00:59:04;2.70;;;1.83;;
9445;SDS011;4761;49.490;10.908;2022-09-21T01:01:30;2.63;;;2.20;;
9445;SDS011;4761;49.490;10.908;2022-09-21T01:03:56;3.43;;;2.13;;
9445;SDS011;4761;49.490;10.908;2022-09-21T01:06:21;2.70;;;2.30;;
9445;SDS011;4761;49.490;10.908;2022-09-21T01:08:52;5.13;;;3.83;;
9445;SDS011;4761;49.490;10.908;2022-09-21T01:11:28;4.37;;;3.47;;
9445;SDS011;4761;49.490;10.908;2022-09-21T01:16:56;4.43;;;3.50;;
9445;SDS011;4761;49.490;10.908;2022-09-21T01:28:32;3.70;;;2.57;;
9445;SDS011;4761;49.490;10.908;2022-09-21T01:31:27;4.40;;;2.60;;
9445;SDS011;4761;49.490;10.908;2022-09-21T01:34:04;3.20;;;2.30;;
9445;SDS011;4761;49.490;10.908;2022-09-21T01:36:34;2.80;;;2.50;;
9445;SDS011;4761;49.490;10.908;2022-09-21T01:39:03;3.20;;;2.53;;
9445;SDS011;4761;49.490;10.908;2022-09-21T01:41:33;2.40;;;2.10;;
9445;SDS011;4761;49.490;10.908;2022-09-21T01:44:08;5.10;;;2.30;;
9445;SDS011;4761;49.490;10.908;2022-09-21T01:46:37;2.40;;;2.20;;
9445;SDS011;4761;49.490;10.908;2022-09-21T01:49:14;2.13;;;1.80;;
9445;SDS011;4761;49.490;10.908;2022-09-21T01:51:49;1.97;;;1.80;;
9445;SDS011;4761;49.490;10.908;2022-09-21T01:54:18;1.70;;;1.60;;
9445;SDS011;4761;49.490;10.908;2022-09-21T01:57:42;2.00;;;1.80;;
9445;SDS011;4761;49.490;10.908;2022-09-21T02:00:16;1.73;;;1.50;;
9445;SDS011;4761;49.490;10.908;2022-09-21T02:02:45;2.93;;;1.90;;
9445;SDS011;4761;49.490;10.908;2022-09-21T02:05:12;2.90;;;2.00;;
9445;SDS011;4761;49.490;10.908;2022-09-21T02:07:41;2.10;;;1.87;;
9445;SDS011;4761;49.490;10.908;2022-09-21T02:10:07;2.20;;;2.00;;
9445;SDS011;4761;49.490;10.908;2022-09-21T02:12:39;2.13;;;1.90;;
9445;SDS011;4761;49.490;10.908;2022-09-21T02:15:04;2.20;;;1.97;;
9445;SDS011;4761;49.490;10.908;2022-09-21T02:20:24;2.00;;;1.90;;
9445;SDS011;4761;49.490;10.908;2022-09-21T02:23:08;1.70;;;1.60;;
9445;SDS011;4761;49.490;10.908;2022-09-21T02:25:45;1.90;;;1.70;;
9445;SDS011;4761;49.490;10.908;2022-09-21T02:31:29;1.80;;;1.60;;
9445;SDS011;4761;49.490;10.908;2022-09-21T02:34:19;1.70;;;1.60;;
9445;SDS011;4761;49.490;10.908;2022-09-21T02:36:56;1.50;;;1.40;;
9445;SDS011;4761;49.490;10.908;2022-09-21T02:39:34;1.87;;;1.40;;
9445;SDS011;4761;49.490;10.908;2022-09-21T02:42:17;1.63;;;1.30;;
9445;SDS011;4761;49.490;10.908;2022-09-21T02:44:54;1.40;;;1.30;;
9445;SDS011;4761;49.490;10.908;2022-09-21T02:47:46;1.40;;;1.30;;
9445;SDS011;4761;49.490;10.908;2022-09-21T02:50:19;1.20;;;1.20;;
9445;SDS011;4761;49.490;10.908;2022-09-21T02:52:48;1.47;;;1.37;;
9445;SDS011;4761;49.490;10.908;2022-09-21T02:55:16;1.43;;;1.30;;
9445;SDS011;4761;49.490;10.908;2022-09-21T02:57:42;1.50;;;1.40;;
9445;SDS011;4761;49.490;10.908;2022-09-21T03:00:12;1.67;;;1.57;;
9445;SDS011;4761;49.490;10.908;2022-09-21T03:02:41;2.50;;;2.30;;
9445;SDS011;4761;49.490;10.908;2022-09-21T03:05:08;2.00;;;1.80;;
9445;SDS011;4761;49.490;10.908;2022-09-21T03:07:35;1.87;;;1.77;;
9445;SDS011;4761;49.490;10.908;2022-09-21T03:10:01;1.60;;;1.50;;
9445;SDS011;4761;49.490;10.908;2022-09-21T03:12:27;1.60;;;1.50;;
9445;SDS011;4761;49.490;10.908;2022-09-21T03:14:53;1.50;;;1.40;;
9445;SDS011;4761;49.490;10.908;2022-09-21T03:17:20;1.40;;;1.30;;
9445;SDS011;4761;49.490;10.908;2022-09-21T03:19:45;1.60;;;1.50;;
9445;SDS011;4761;49.490;10.908;2022-09-21T03:22:11;1.30;;;1.20;;
9445;SDS011;4761;49.490;10.908;2022-09-21T03:24:36;1.40;;;1.30;;
9445;SDS011;4761;49.490;10.908;2022-09-21T03:27:11;1.53;;;1.43;;
9445;SDS011;4761;49.490;10.908;2022-09-21T03:29:38;1.83;;;1.47;;
9445;SDS011;4761;49.490;10.908;2022-09-21T03:32:04;1.40;;;1.30;;
9445;SDS011;4761;49.490;10.908;2022-09-21T03:34:30;1.40;;;1.30;;
9445;SDS011;4761;49.490;10.908;2022-09-21T03:36:57;1.27;;;1.17;;
9445;SDS011;4761;49.490;10.908;2022-09-21T03:39:23;1.47;;;1.37;;
9445;SDS011;4761;49.490;10.908;2022-09-21T03:41:49;1.50;;;1.40;;
9445;SDS011;4761;49.490;10.908;2022-09-21T03:44:14;1.77;;;1.60;;
9445;SDS011;4761;49.490;10.908;2022-09-21T03:46:41;1.80;;;1.70;;
9445;SDS011;4761;49.490;10.908;2022-09-21T03:49:07;1.80;;;1.70;;
9445;SDS011;4761;49.490;10.908;2022-09-21T03:51:33;1.63;;;1.50;;
9445;SDS011;4761;49.490;10.908;2022-09-21T03:53:58;1.90;;;1.80;;
9445;SDS011;4761;49.490;10.908;2022-09-21T03:56:24;2.03;;;1.87;;
9445;SDS011;4761;49.490;10.908;2022-09-21T03:58:49;1.83;;;1.73;;
9445;SDS011;4761;49.490;10.908;2022-09-21T04:01:15;1.67;;;1.57;;
9445;SDS011;4761;49.490;10.908;2022-09-21T04:03:40;2.60;;;2.40;;
9445;SDS011;4761;49.490;10.908;2022-09-21T04:06:09;2.00;;;1.90;;
9445;SDS011;4761;49.490;10.908;2022-09-21T04:08:36;2.70;;;2.50;;
9445;SDS011;4761;49.490;10.908;2022-09-21T04:11:12;2.87;;;2.67;;
9445;SDS011;4761;49.490;10.908;2022-09-21T04:13:41;2.43;;;2.23;;
9445;SDS011;4761;49.490;10.908;2022-09-21T04:16:07;2.13;;;2.03;;
9445;SDS011;4761;49.490;10.908;2022-09-21T04:18:34;1.93;;;1.83;;
9445;SDS011;4761;49.490;10.908;2022-09-21T04:21:03;1.90;;;1.80;;
9445;SDS011;4761;49.490;10.908;2022-09-21T04:23:30;1.90;;;1.80;;
9445;SDS011;4761;49.490;10.908;2022-09-21T04:25:55;2.63;;;1.70;;
9445;SDS011;4761;49.490;10.908;2022-09-21T04:28:21;2.03;;;1.93;;
9445;SDS011;4761;49.490;10.908;2022-09-21T04:30:51;2.87;;;1.77;;
9445;SDS011;4761;49.490;10.908;2022-09-21T04:33:17;1.77;;;1.67;;
9445;SDS011;4761;49.490;10.908;2022-09-21T04:35:43;2.40;;;2.20;;
9445;SDS011;4761;49.490;10.908;2022-09-21T04:38:09;1.83;;;1.73;;
9445;SDS011;4761;49.490;10.908;2022-09-21T04:40:37;2.00;;;1.90;;
9445;SDS011;4761;49.490;10.908;2022-09-21T04:43:03;1.80;;;1.70;;
9445;SDS011;4761;49.490;10.908;2022-09-21T04:45:28;1.90;;;1.80;;
9445;SDS011;4761;49.490;10.908;2022-09-21T04:47:55;1.80;;;1.70;;
9445;SDS011;4761;49.490;10.908;2022-09-21T04:50:20;1.90;;;1.80;;
9445;SDS011;4761;49.490;10.908;2022-09-21T04:52:46;2.20;;;2.00;;
9445;SDS011;4761;49.490;10.908;2022-09-21T04:55:11;1.93;;;1.83;;
9445;SDS011;4761;49.490;10.908;2022-09-21T04:57:37;2.10;;;1.90;;
9445;SDS011;4761;49.490;10.908;2022-09-21T05:00:03;1.90;;;1.63;;
9445;SDS011;4761;49.490;10.908;2022-09-21T05:02:29;1.60;;;1.50;;
9445;SDS011;4761;49.490;10.908;2022-09-21T05:04:55;1.70;;;1.60;;
9445;SDS011;4761;49.490;10.908;2022-09-21T05:07:20;1.80;;;1.70;;
9445;SDS011;4761;49.490;10.908;2022-09-21T05:09:46;1.70;;;1.60;;
9445;SDS011;4761;49.490;10.908;2022-09-21T05:12:27;1.80;;;1.70;;
9445;SDS011;4761;49.490;10.908;2022-09-21T05:14:53;1.60;;;1.50;;
9445;SDS011;4761;49.490;10.908;2022-09-21T05:17:19;1.50;;;1.40;;
9445;SDS011;4761;49.490;10.908;2022-09-21T05:19:46;1.50;;;1.40;;
9445;SDS011;4761;49.490;10.908;2022-09-21T05:22:12;1.63;;;1.40;;
9445;SDS011;4761;49.490;10.908;2022-09-21T05:24:38;1.63;;;1.53;;
9445;SDS011;4761;49.490;10.908;2022-09-21T05:27:03;1.33;;;1.23;;
9445;SDS011;4761;49.490;10.908;2022-09-21T05:29:29;1.63;;;1.53;;
9445;SDS011;4761;49.490;10.908;2022-09-21T05:40:08;1.70;;;1.60;;
9445;SDS011;4761;49.490;10.908;2022-09-21T05:42:36;1.87;;;1.77;;
9445;SDS011;4761;49.490;10.908;2022-09-21T05:45:02;2.03;;;1.83;;
9445;SDS011;4761;49.490;10.908;2022-09-21T05:50:47;1.40;;;1.30;;
9445;SDS011;4761;49.490;10.908;2022-09-21T05:53:30;1.50;;;1.40;;
9445;SDS011;4761;49.490;10.908;2022-09-21T06:04:34;1.60;;;1.50;;
9445;SDS011;4761;49.490;10.908;2022-09-21T06:06:59;1.33;;;1.23;;
9445;SDS011;4761;49.490;10.908;2022-09-21T06:09:25;1.30;;;1.20;;
9445;SDS011;4761;49.490;10.908;2022-09-21T06:11:51;1.30;;;1.20;;
9445;SDS011;4761;49.490;10.908;2022-09-21T06:14:17;1.30;;;1.20;;
9445;SDS011;4761;49.490;10.908;2022-09-21T06:16:48;1.50;;;1.40;;
9445;SDS011;4761;49.490;10.908;2022-09-21T06:19:14;1.20;;;1.20;;
9445;SDS011;4761;49.490;10.908;2022-09-21T06:21:40;1.03;;;1.03;;
9445;SDS011;4761;49.490;10.908;2022-09-21T06:24:06;1.23;;;1.13;;
9445;SDS011;4761;49.490;10.908;2022-09-21T06:26:32;1.20;;;1.10;;
9445;SDS011;4761;49.490;10.908;2022-09-21T06:28:57;1.47;;;1.37;;
9445;SDS011;4761;49.490;10.908;2022-09-21T06:31:23;1.17;;;1.07;;
9445;SDS011;4761;49.490;10.908;2022-09-21T06:33:48;1.40;;;1.30;;
9445;SDS011;4761;49.490;10.908;2022-09-21T06:36:14;1.40;;;1.30;;
9445;SDS011;4761;49.490;10.908;2022-09-21T06:38:41;1.30;;;1.20;;
9445;SDS011;4761;49.490;10.908;2022-09-21T06:41:06;1.40;;;1.30;;
9445;SDS011;4761;49.490;10.908;2022-09-21T06:43:32;1.33;;;1.30;;
9445;SDS011;4761;49.490;10.908;2022-09-21T06:45:58;1.50;;;1.40;;
9445;SDS011;4761;49.490;10.908;2022-09-21T06:48:25;1.70;;;1.60;;
9445;SDS011;4761;49.490;10.908;2022-09-21T06:50:56;1.60;;;1.50;;
9445;SDS011;4761;49.490;10.908;2022-09-21T06:53:23;1.53;;;1.43;;
9445;SDS011;4761;49.490;10.908;2022-09-21T06:55:49;1.40;;;1.30;;
9445;SDS011;4761;49.490;10.908;2022-09-21T06:58:14;1.47;;;1.37;;
9445;SDS011;4761;49.490;10.908;2022-09-21T07:00:40;1.77;;;1.67;;
9445;SDS011;4761;49.490;10.908;2022-09-21T07:03:08;1.27;;;1.20;;
9445;SDS011;4761;49.490;10.908;2022-09-21T07:05:36;2.33;;;2.13;;
9445;SDS011;4761;49.490;10.908;2022-09-21T07:08:01;1.90;;;1.80;;
9445;SDS011;4761;49.490;10.908;2022-09-21T07:10:27;1.60;;;1.50;;
9445;SDS011;4761;49.490;10.908;2022-09-21T07:12:52;1.60;;;1.50;;
9445;SDS011;4761;49.490;10.908;2022-09-21T07:15:18;1.57;;;1.47;;
9445;SDS011;4761;49.490;10.908;2022-09-21T07:17:45;1.70;;;1.60;;
9445;SDS011;4761;49.490;10.908;2022-09-21T07:20:11;1.77;;;1.67;;
9445;SDS011;4761;49.490;10.908;2022-09-21T07:22:36;2.00;;;1.90;;
9445;SDS011;4761;49.490;10.908;2022-09-21T07:25:02;1.80;;;1.70;;
9445;SDS011;4761;49.490;10.908;2022-09-21T07:27:29;1.70;;;1.60;;
9445;SDS011;4761;49.490;10.908;2022-09-21T07:29:56;1.73;;;1.63;;
9445;SDS011;4761;49.490;10.908;2022-09-21T07:32:21;1.70;;;1.60;;
9445;SDS011;4761;49.490;10.908;2022-09-21T07:34:47;1.80;;;1.70;;
9445;SDS011;4761;49.490;10.908;2022-09-21T07:37:13;2.10;;;2.00;;
9445;SDS011;4761;49.490;10.908;2022-09-21T07:39:39;2.10;;;1.97;;
9445;SDS011;4761;49.490;10.908;2022-09-21T07:42:05;2.10;;;2.00;;
9445;SDS011;4761;49.490;10.908;2022-09-21T07:44:30;1.90;;;1.80;;
9445;SDS011;4761;49.490;10.908;2022-09-21T07:46:56;2.40;;;2.20;;
9445;SDS011;4761;49.490;10.908;2022-09-21T07:49:21;2.67;;;2.47;;
9445;SDS011;4761;49.490;10.908;2022-09-21T07:51:47;2.95;;;2.72;;
9445;SDS011;4761;49.490;10.908;2022-09-21T07:54:12;3.10;;;2.80;;
9445;SDS011;4761;49.490;10.908;2022-09-21T07:56:39;2.35;;;2.15;;
9445;SDS011;4761;49.490;10.908;2022-09-21T07:59:06;2.67;;;2.47;;
9445;SDS011;4761;49.490;10.908;2022-09-21T08:03:58;2.57;;;2.37;;
9445;SDS011;4761;49.490;10.908;2022-09-21T08:06:25;2.30;;;2.10;;
9445;SDS011;4761;49.490;10.908;2022-09-21T08:08:52;1.87;;;1.77;;
9445;SDS011;4761;49.490;10.908;2022-09-21T08:11:18;2.50;;;2.30;;
9445;SDS011;4761;49.490;10.908;2022-09-21T08:13:46;4.40;;;4.00;;
9445;SDS011;4761;49.490;10.908;2022-09-21T08:16:22;3.03;;;2.83;;
9445;SDS011;4761;49.490;10.908;2022-09-21T08:18:49;2.33;;;2.13;;
9445;SDS011;4761;49.490;10.908;2022-09-21T08:21:15;2.13;;;2.03;;
9445;SDS011;4761;49.490;10.908;2022-09-21T08:23:42;2.70;;;2.50;;
9445;SDS011;4761;49.490;10.908;2022-09-21T08:26:10;3.00;;;2.70;;
9445;SDS011;4761;49.490;10.908;2022-09-21T08:28:40;2.43;;;2.23;;
9445;SDS011;4761;49.490;10.908;2022-09-21T08:31:06;3.60;;;3.30;;
9445;SDS011;4761;49.490;10.908;2022-09-21T08:33:33;5.38;;;4.82;;
9445;SDS011;4761;49.490;10.908;2022-09-21T08:35:59;3.97;;;3.57;;
9445;SDS011;4761;49.490;10.908;2022-09-21T08:38:26;2.53;;;2.33;;
9445;SDS011;4761;49.490;10.908;2022-09-21T08:40:56;2.87;;;2.17;;
9445;SDS011;4761;49.490;10.908;2022-09-21T08:45:59;2.67;;;2.47;;
9445;SDS011;4761;49.490;10.908;2022-09-21T08:48:28;2.47;;;2.27;;
9445;SDS011;4761;49.490;10.908;2022-09-21T08:51:01;2.20;;;2.10;;
9445;SDS011;4761;49.490;10.908;2022-09-21T08:53:31;2.40;;;2.20;;
9445;SDS011;4761;49.490;10.908;2022-09-21T08:56:02;2.10;;;1.90;;
9445;SDS011;4761;49.490;10.908;2022-09-21T08:58:29;1.90;;;1.80;;
9445;SDS011;4761;49.490;10.908;2022-09-21T09:09:13;2.50;;;2.30;;
9445;SDS011;4761;49.490;10.908;2022-09-21T09:17:44;2.40;;;2.20;;
9445;SDS011;4761;49.490;10.908;2022-09-21T09:23:09;2.60;;;2.40;;
9445;SDS011;4761;49.490;10.908;2022-09-21T09:25:43;2.63;;;2.42;;
9445;SDS011;4761;49.490;10.908;2022-09-21T09:28:16;3.80;;;3.28;;
9445;SDS011;4761;49.490;10.908;2022-09-21T09:31:05;3.23;;;2.93;;
9445;SDS011;4761;49.490;10.908;2022-09-21T09:33:56;2.87;;;2.67;;
9445;SDS011;4761;49.490;10.908;2022-09-21T09:36:29;2.77;;;2.57;;
9445;SDS011;4761;49.490;10.908;2022-09-21T09:38:57;2.67;;;2.47;;
9445;SDS011;4761;49.490;10.908;2022-09-21T09:50:20;3.22;;;2.92;;
9445;SDS011;4761;49.490;10.908;2022-09-21T09:52:52;3.08;;;2.78;;
9445;SDS011;4761;49.490;10.908;2022-09-21T09:55:25;3.25;;;2.95;;
9445;SDS011;4761;49.490;10.908;2022-09-21T09:57:58;3.30;;;3.00;;
9445;SDS011;4761;49.490;10.908;2022-09-21T10:00:24;2.90;;;2.70;;
9445;SDS011;4761;49.490;10.908;2022-09-21T10:05:32;3.10;;;2.90;;
9445;SDS011;4761;49.490;10.908;2022-09-21T10:08:02;3.38;;;3.08;;
9445;SDS011;4761;49.490;10.908;2022-09-21T10:13:10;2.92;;;2.67;;
9445;SDS011;4761;49.490;10.908;2022-09-21T10:15:42;2.80;;;2.60;;
9445;SDS011;4761;49.490;10.908;2022-09-21T10:18:17;2.60;;;2.40;;
9445;SDS011;4761;49.490;10.908;2022-09-21T10:20:56;3.03;;;2.53;;
9445;SDS011;4761;49.490;10.908;2022-09-21T10:23:33;2.83;;;2.63;;
9445;SDS011;4761;49.490;10.908;2022-09-21T10:26:07;3.60;;;3.30;;
9445;SDS011;4761;49.490;10.908;2022-09-21T10:28:34;3.00;;;2.80;;
9445;SDS011;4761;49.490;10.908;2022-09-21T10:31:07;2.55;;;2.35;;
9445;SDS011;4761;49.490;10.908;2022-09-21T10:33:49;3.35;;;2.47;;
9445;SDS011;4761;49.490;10.908;2022-09-21T10:36:30;2.50;;;2.30;;
9445;SDS011;4761;49.490;10.908;2022-09-21T10:44:19;2.55;;;2.35;;
9445;SDS011;4761;49.490;10.908;2022-09-21T10:46:47;2.58;;;2.38;;
9445;SDS011;4761;49.490;10.908;2022-09-21T10:49:24;2.70;;;2.50;;
9445;SDS011;4761;49.490;10.908;2022-09-21T10:51:55;2.30;;;2.10;;
9445;SDS011;4761;49.490;10.908;2022-09-21T10:54:23;2.30;;;2.10;;
9445;SDS011;4761;49.490;10.908;2022-09-21T10:56:56;2.05;;;1.92;;
9445;SDS011;4761;49.490;10.908;2022-09-21T10:59:27;2.42;;;2.20;;
9445;SDS011;4761;49.490;10.908;2022-09-21T11:01:57;1.80;;;1.70;;
9445;SDS011;4761;49.490;10.908;2022-09-21T11:07:26;2.10;;;1.90;;
9445;SDS011;4761;49.490;10.908;2022-09-21T11:12:54;1.77;;;1.45;;
9445;SDS011;4761;49.490;10.908;2022-09-21T11:15:58;1.70;;;1.60;;
9445;SDS011;4761;49.490;10.908;2022-09-21T11:27:09;1.98;;;1.55;;
9445;SDS011;4761;49.490;10.908;2022-09-21T11:45:54;1.13;;;1.02;;
9445;SDS011;4761;49.490;10.908;2022-09-21T11:48:37;1.00;;;0.90;;
9445;SDS011;4761;49.490;10.908;2022-09-21T12:05:18;0.55;;;0.55;;
9445;SDS011;4761;49.490;10.908;2022-09-21T12:15:36;0.50;;;0.50;;
9445;SDS011;4761;49.490;10.908;2022-09-21T12:18:12;0.70;;;0.70;;
9445;SDS011;4761;49.490;10.908;2022-09-21T12:21:00;0.50;;;0.50;;
9445;SDS011;4761;49.490;10.908;2022-09-21T12:23:48;0.68;;;0.68;;
9445;SDS011;4761;49.490;10.908;2022-09-21T12:26:25;0.70;;;0.70;;
9445;SDS011;4761;49.490;10.908;2022-09-21T12:28:56;0.60;;;0.60;;
9445;SDS011;4761;49.490;10.908;2022-09-21T12:34:23;1.13;;;0.82;;
9445;SDS011;4761;49.490;10.908;2022-09-21T12:39:44;0.75;;;0.75;;
9445;SDS011;4761;49.490;10.908;2022-09-21T12:48:05;0.60;;;0.60;;
9445;SDS011;4761;49.490;10.908;2022-09-21T12:50:57;0.85;;;0.60;;
9445;SDS011;4761;49.490;10.908;2022-09-21T12:53:41;1.00;;;0.80;;
9445;SDS011;4761;49.490;10.908;2022-09-21T13:01:50;0.65;;;0.65;;
9445;SDS011;4761;49.490;10.908;2022-09-21T13:09:54;0.80;;;0.80;;
9445;SDS011;4761;49.490;10.908;2022-09-21T13:12:23;0.73;;;0.73;;
9445;SDS011;4761;49.490;10.908;2022-09-21T13:14:56;0.60;;;0.60;;
9445;SDS011;4761;49.490;10.908;2022-09-21T13:17:43;0.60;;;0.60;;
9445;SDS011;4761;49.490;10.908;2022-09-21T13:20:16;0.75;;;0.75;;
9445;SDS011;4761;49.490;10.908;2022-09-21T13:22:44;0.80;;;0.80;;
9445;SDS011;4761;49.490;10.908;2022-09-21T13:25:19;0.70;;;0.70;;
9445;SDS011;4761;49.490;10.908;2022-09-21T13:38:30;1.20;;;1.00;;
9445;SDS011;4761;49.490;10.908;2022-09-21T13:41:03;0.85;;;0.85;;
9445;SDS011;4761;49.490;10.908;2022-09-21T13:51:32;0.88;;;0.80;;
9445;SDS011;4761;49.490;10.908;2022-09-21T13:53:58;1.00;;;0.90;;
9445;SDS011;4761;49.490;10.908;2022-09-21T13:56:26;2.20;;;1.20;;
9445;SDS011;4761;49.490;10.908;2022-09-21T13:58:53;2.15;;;1.00;;
9445;SDS011;4761;49.490;10.908;2022-09-21T14:01:21;1.35;;;0.70;;
9445;SDS011;4761;49.490;10.908;2022-09-21T14:04:03;1.08;;;1.00;;
9445;SDS011;4761;49.490;10.908;2022-09-21T14:06:41;1.02;;;0.90;;
9445;SDS011;4761;49.490;10.908;2022-09-21T14:11:57;1.33;;;1.00;;
9445;SDS011;4761;49.490;10.908;2022-09-21T14:16:57;2.30;;;1.02;;
9445;SDS011;4761;49.490;10.908;2022-09-21T14:27:22;0.83;;;0.80;;
9445;SDS011;4761;49.490;10.908;2022-09-21T14:29:54;0.87;;;0.87;;
9445;SDS011;4761;49.490;10.908;2022-09-21T14:32:28;1.70;;;0.87;;
9445;SDS011;4761;49.490;10.908;2022-09-21T14:35:15;0.80;;;0.80;;
9445;SDS011;4761;49.490;10.908;2022-09-21T14:37:45;0.90;;;0.90;;
9445;SDS011;4761;49.490;10.908;2022-09-21T14:40:23;1.43;;;1.10;;
9445;SDS011;4761;49.490;10.908;2022-09-21T14:43:05;0.77;;;0.77;;
9445;SDS011;4761;49.490;10.908;2022-09-21T14:54:47;0.90;;;0.80;;
9445;SDS011;4761;49.490;10.908;2022-09-21T15:05:45;1.10;;;0.90;;
9445;SDS011;4761;49.490;10.908;2022-09-21T15:08:53;0.83;;;0.83;;
9445;SDS011;4761;49.490;10.908;2022-09-21T15:11:58;1.70;;;1.20;;
9445;SDS011;4761;49.490;10.908;2022-09-21T15:14:36;1.00;;;0.80;;
9445;SDS011;4761;49.490;10.908;2022-09-21T15:17:17;1.20;;;0.73;;
9445;SDS011;4761;49.490;10.908;2022-09-21T15:19:50;0.97;;;0.80;;
9445;SDS011;4761;49.490;10.908;2022-09-21T15:22:22;1.20;;;0.90;;
9445;SDS011;4761;49.490;10.908;2022-09-21T15:24:55;0.80;;;0.80;;
9445;SDS011;4761;49.490;10.908;2022-09-21T15:27:24;0.80;;;0.80;;
9445;SDS011;4761;49.490;10.908;2022-09-21T15:29:58;1.73;;;1.30;;
9445;SDS011;4761;49.490;10.908;2022-09-21T15:32:34;1.80;;;1.40;;
9445;SDS011;4761;49.490;10.908;2022-09-21T15:35:25;1.40;;;1.30;;
9445;SDS011;4761;49.490;10.908;2022-09-21T15:37:54;1.53;;;1.43;;
9445;SDS011;4761;49.490;10.908;2022-09-21T15:40:22;1.27;;;1.17;;
9445;SDS011;4761;49.490;10.908;2022-09-21T15:45:55;1.33;;;1.20;;
9445;SDS011;4761;49.490;10.908;2022-09-21T15:48:26;2.07;;;1.00;;
9445;SDS011;4761;49.490;10.908;2022-09-21T15:51:22;1.50;;;1.20;;
9445;SDS011;4761;49.490;10.908;2022-09-21T15:54:06;2.80;;;2.40;;
9445;SDS011;4761;49.490;10.908;2022-09-21T15:56:32;2.43;;;2.23;;
9445;SDS011;4761;49.490;10.908;2022-09-21T15:59:04;2.80;;;1.97;;
9445;SDS011;4761;49.490;10.908;2022-09-21T16:01:40;4.20;;;1.80;;
9445;SDS011;4761;49.490;10.908;2022-09-21T16:04:17;1.70;;;1.40;;
9445;SDS011;4761;49.490;10.908;2022-09-21T16:07:21;1.83;;;1.63;;
9445;SDS011;4761;49.490;10.908;2022-09-21T16:09:47;1.87;;;1.77;;
9445;SDS011;4761;49.490;10.908;2022-09-21T16:15:03;1.83;;;1.37;;
9445;SDS011;4761;49.490;10.908;2022-09-21T16:17:35;1.67;;;1.50;;
9445;SDS011;4761;49.490;10.908;2022-09-21T16:20:10;2.13;;;1.37;;
9445;SDS011;4761;49.490;10.908;2022-09-21T16:22:44;1.63;;;1.50;;
9445;SDS011;4761;49.490;10.908;2022-09-21T16:25:18;2.70;;;1.67;;
9445;SDS011;4761;49.490;10.908;2022-09-21T16:27:48;1.47;;;1.37;;
9445;SDS011;4761;49.490;10.908;2022-09-21T16:38:49;3.80;;;1.77;;
9445;SDS011;4761;49.490;10.908;2022-09-21T16:41:19;2.53;;;1.20;;
9445;SDS011;4761;49.490;10.908;2022-09-21T16:43:46;1.57;;;1.30;;
9445;SDS011;4761;49.490;10.908;2022-09-21T16:46:14;1.67;;;1.20;;
9445;SDS011;4761;49.490;10.908;2022-09-21T16:48:40;2.13;;;1.40;;
9445;SDS011;4761;49.490;10.908;2022-09-21T16:51:10;1.30;;;1.10;;
9445;SDS011;4761;49.490;10.908;2022-09-21T16:53:36;1.43;;;1.27;;
9445;SDS011;4761;49.490;10.908;2022-09-21T16:56:02;1.30;;;1.20;;
9445;SDS011;4761;49.490;10.908;2022-09-21T16:58:28;2.47;;;1.30;;
9445;SDS011;4761;49.490;10.908;2022-09-21T17:00:53;1.97;;;1.10;;
9445;SDS011;4761;49.490;10.908;2022-09-21T17:03:19;1.47;;;1.37;;
9445;SDS011;4761;49.490;10.908;2022-09-21T17:05:45;2.30;;;1.10;;
9445;SDS011;4761;49.490;10.908;2022-09-21T17:08:11;2.17;;;1.27;;
9445;SDS011;4761;49.490;10.908;2022-09-21T17:10:38;1.53;;;1.20;;
9445;SDS011;4761;49.490;10.908;2022-09-21T17:13:08;2.17;;;1.30;;
9445;SDS011;4761;49.490;10.908;2022-09-21T17:15:34;1.40;;;1.30;;
9445;SDS011;4761;49.490;10.908;2022-09-21T17:18:00;1.30;;;1.17;;
9445;SDS011;4761;49.490;10.908;2022-09-21T17:20:34;2.00;;;1.30;;
9445;SDS011;4761;49.490;10.908;2022-09-21T17:23:02;1.93;;;1.53;;
9445;SDS011;4761;49.490;10.908;2022-09-21T17:25:31;1.60;;;1.20;;
9445;SDS011;4761;49.490;10.908;2022-09-21T17:27:59;2.93;;;1.30;;
9445;SDS011;4761;49.490;10.908;2022-09-21T17:30:34;1.93;;;1.30;;
9445;SDS011;4761;49.490;10.908;2022-09-21T17:32:59;1.77;;;1.37;;
9445;SDS011;4761;49.490;10.908;2022-09-21T17:35:30;1.70;;;1.10;;
9445;SDS011;4761;49.490;10.908;2022-09-21T17:37:57;1.37;;;1.10;;
9445;SDS011;4761;49.490;10.908;2022-09-21T17:40:24;1.67;;;1.20;;
9445;SDS011;4761;49.490;10.908;2022-09-21T17:42:51;1.60;;;1.27;;
9445;SDS011;4761;49.490;10.908;2022-09-21T17:45:34;1.40;;;1.27;;
9445;SDS011;4761;49.490;10.908;2022-09-21T17:48:06;2.13;;;1.20;;
9445;SDS011;4761;49.490;10.908;2022-09-21T17:50:41;1.63;;;1.40;;
9445;SDS011;4761;49.490;10.908;2022-09-21T17:53:07;2.27;;;1.60;;
9445;SDS011;4761;49.490;10.908;2022-09-21T17:55:56;3.70;;;2.80;;
9445;SDS011;4761;49.490;10.908;2022-09-21T18:01:25;4.70;;;2.80;;
9445;SDS011;4761;49.490;10.908;2022-09-21T18:04:01;3.03;;;2.57;;
9445;SDS011;4761;49.490;10.908;2022-09-21T18:06:28;3.27;;;2.53;;
9445;SDS011;4761;49.490;10.908;2022-09-21T18:08:54;3.60;;;2.40;;
9445;SDS011;4761;49.490;10.908;2022-09-21T18:25:00;2.63;;;1.80;;
9445;SDS011;4761;49.490;10.908;2022-09-21T18:27:33;2.27;;;1.97;;
9445;SDS011;4761;49.490;10.908;2022-09-21T18:29:59;2.33;;;1.93;;
9445;SDS011;4761;49.490;10.908;2022-09-21T18:37:31;1.60;;;1.50;;
9445;SDS011;4761;49.490;10.908;2022-09-21T18:40:50;2.53;;;1.87;;
9445;SDS011;4761;49.490;10.908;2022-09-21T18:43:28;2.80;;;1.93;;
9445;SDS011;4761;49.490;10.908;2022-09-21T18:46:09;4.17;;;1.60;;
9445;SDS011;4761;49.490;10.908;2022-09-21T18:52:16;3.07;;;1.87;;
9445;SDS011;4761;49.490;10.908;2022-09-21T18:54:49;3.10;;;2.73;;
9445;SDS011;4761;49.490;10.908;2022-09-21T18:57:15;2.83;;;2.40;;
9445;SDS011;4761;49.490;10.908;2022-09-21T18:59:40;5.23;;;2.60;;
9445;SDS011;4761;49.490;10.908;2022-09-21T19:02:16;4.53;;;2.80;;
9445;SDS011;4761;49.490;10.908;2022-09-21T19:04:44;6.73;;;2.87;;
9445;SDS011;4761;49.490;10.908;2022-09-21T19:10:10;4.00;;;3.00;;
9445;SDS011;4761;49.490;10.908;2022-09-21T19:15:23;3.80;;;2.87;;
9445;SDS011;4761;49.490;10.908;2022-09-21T19:20:47;3.43;;;2.60;;
9445;SDS011;4761;49.490;10.908;2022-09-21T19:23:21;2.70;;;2.37;;
9445;SDS011;4761;49.490;10.908;2022-09-21T19:25:55;2.50;;;2.10;;
9445;SDS011;4761;49.490;10.908;2022-09-21T19:31:27;2.50;;;2.10;;
9445;SDS011;4761;49.490;10.908;2022-09-21T19:33:53;2.73;;;2.40;;
9445;SDS011;4761;49.490;10.908;2022-09-21T19:36:19;2.93;;;2.50;;
9445;SDS011;4761;49.490;10.908;2022-09-21T19:38:46;3.00;;;2.10;;
9445;SDS011;4761;49.490;10.908;2022-09-21T19:41:22;2.83;;;2.13;;